sensor_id;sensor_type;location;lat;lon;timestamp;pressure;altitude;pressure_sealevel;temperature;humidity
54556;BME280;57291;37.520;15.106;2023-08-31T00:01:01;100920.09;;;24.51;62.71
54556;BME280;57291;37.520;15.106;2023-08-31T00:03:31;100916.47;;;24.47;63.29
54556;BME280;57291;37.520;15.106;2023-08-31T00:06:01;100910.50;;;24.45;63.54
54556;BME280;57291;37.520;15.106;2023-08-31T00:08:30;100908.50;;;24.42;64.25
54556;BME280;57291;37.520;15.106;2023-08-31T00:10:58;100911.22;;;24.39;64.57
54556;BME280;57291;37.520;15.106;2023-08-31T00:13:25;100912.38;;;24.38;64.93
54556;BME280;57291;37.520;15.106;2023-08-31T00:15:55;100915.97;;;24.38;65.06
54556;BME280;57291;37.520;15.106;2023-08-31T00:18:25;100917.56;;;24.39;64.84
54556;BME280;57291;37.520;15.106;2023-08-31T00:20:52;100911.22;;;24.39;64.91
54556;BME280;57291;37.520;15.106;2023-08-31T00:23:20;100906.44;;;24.36;65.78
54556;BME280;57291;37.520;15.106;2023-08-31T00:25:47;100915.53;;;24.32;66.02
54556;BME280;57291;37.520;15.106;2023-08-31T00:28:19;100915.09;;;24.30;66.00
54556;BME280;57291;37.520;15.106;2023-08-31T00:30:46;100914.31;;;24.30;66.42
54556;BME280;57291;37.520;15.106;2023-08-31T00:33:16;100919.88;;;24.30;66.29
54556;BME280;57291;37.520;15.106;2023-08-31T00:35:44;100916.31;;;24.29;66.79
54556;BME280;57291;37.520;15.106;2023-08-31T00:38:13;100919.44;;;24.28;67.38
54556;BME280;57291;37.520;15.106;2023-08-31T00:40:42;100929.38;;;24.25;67.29
54556;BME280;57291;37.520;15.106;2023-08-31T00:43:13;100919.84;;;24.26;67.86
54556;BME280;57291;37.520;15.106;2023-08-31T00:45:46;100925.44;;;24.30;68.42
54556;BME280;57291;37.520;15.106;2023-08-31T00:48:16;100926.19;;;24.27;68.33
54556;BME280;57291;37.520;15.106;2023-08-31T00:50:48;100921.03;;;24.25;68.45
54556;BME280;57291;37.520;15.106;2023-08-31T00:53:15;100924.19;;;24.24;68.50
54556;BME280;57291;37.520;15.106;2023-08-31T00:55:46;100932.16;;;24.25;69.14
54556;BME280;57291;37.520;15.106;2023-08-31T00:58:14;100918.66;;;24.27;68.59
54556;BME280;57291;37.520;15.106;2023-08-31T01:08:54;100920.69;;;24.34;69.17
54556;BME280;57291;37.520;15.106;2023-08-31T01:11:59;100921.47;;;24.34;69.44
54556;BME280;57291;37.520;15.106;2023-08-31T01:14:25;100924.25;;;24.34;69.21
54556;BME280;57291;37.520;15.106;2023-08-31T01:16:55;100932.59;;;24.34;69.56
54556;BME280;57291;37.520;15.106;2023-08-31T01:19:50;100936.22;;;24.39;69.73
54556;BME280;57291;37.520;15.106;2023-08-31T01:24:54;100944.56;;;24.39;69.38
54556;BME280;57291;37.520;15.106;2023-08-31T01:27:21;100955.28;;;24.40;69.52
54556;BME280;57291;37.520;15.106;2023-08-31T01:29:50;100951.69;;;24.40;70.06
54556;BME280;57291;37.520;15.106;2023-08-31T01:32:17;100963.59;;;24.40;70.24
54556;BME280;57291;37.520;15.106;2023-08-31T01:34:44;100973.13;;;24.39;69.84
54556;BME280;57291;37.520;15.106;2023-08-31T01:37:17;100972.69;;;24.37;69.87
54556;BME280;57291;37.520;15.106;2023-08-31T01:39:51;100962.75;;;24.32;70.01
54556;BME280;57291;37.520;15.106;2023-08-31T01:42:20;100969.88;;;24.30;70.21
54556;BME280;57291;37.520;15.106;2023-08-31T01:44:48;100974.22;;;24.31;70.42
54556;BME280;57291;37.520;15.106;2023-08-31T01:47:17;100970.66;;;24.30;70.62
54556;BME280;57291;37.520;15.106;2023-08-31T01:49:46;100967.09;;;24.30;70.50
54556;BME280;57291;37.520;15.106;2023-08-31T01:52:13;100971.44;;;24.31;70.45
54556;BME280;57291;37.520;15.106;2023-08-31T01:54:40;100970.28;;;24.32;70.27
54556;BME280;57291;37.520;15.106;2023-08-31T01:57:07;100970.28;;;24.32;70.49
54556;BME280;57291;37.520;15.106;2023-08-31T01:59:57;100966.69;;;24.31;70.86
54556;BME280;57291;37.520;15.106;2023-08-31T02:02:24;100973.06;;;24.32;70.88
54556;BME280;57291;37.520;15.106;2023-08-31T02:04:52;100977.03;;;24.34;70.74
54556;BME280;57291;37.520;15.106;2023-08-31T02:07:19;100973.06;;;24.32;70.92
54556;BME280;57291;37.520;15.106;2023-08-31T02:09:46;100977.81;;;24.31;70.98
54556;BME280;57291;37.520;15.106;2023-08-31T02:12:13;100971.44;;;24.31;70.83
54556;BME280;57291;37.520;15.106;2023-08-31T02:14:40;100960.34;;;24.31;70.78
54556;BME280;57291;37.520;15.106;2023-08-31T02:17:07;100967.47;;;24.28;70.71
54556;BME280;57291;37.520;15.106;2023-08-31T02:19:34;100965.88;;;24.27;70.79
54556;BME280;57291;37.520;15.106;2023-08-31T02:22:01;100966.63;;;24.24;71.08
54556;BME280;57291;37.520;15.106;2023-08-31T02:24:28;100966.63;;;24.24;70.85
54556;BME280;57291;37.520;15.106;2023-08-31T02:26:56;100974.16;;;24.24;71.33
54556;BME280;57291;37.520;15.106;2023-08-31T02:29:25;100974.16;;;24.24;71.30
54556;BME280;57291;37.520;15.106;2023-08-31T02:31:53;100972.16;;;24.21;70.98
54556;BME280;57291;37.520;15.106;2023-08-31T02:34:20;100970.97;;;24.22;71.24
54556;BME280;57291;37.520;15.106;2023-08-31T02:36:48;100967.00;;;24.19;71.04
54556;BME280;57291;37.520;15.106;2023-08-31T02:39:15;100978.47;;;24.18;71.17
54556;BME280;57291;37.520;15.106;2023-08-31T02:41:43;101001.88;;;24.17;71.26
54556;BME280;57291;37.520;15.106;2023-08-31T02:44:11;100984.78;;;24.15;71.67
54556;BME280;57291;37.520;15.106;2023-08-31T02:46:38;100995.88;;;24.15;71.20
54556;BME280;57291;37.520;15.106;2023-08-31T02:49:05;100995.09;;;24.14;71.69
54556;BME280;57291;37.520;15.106;2023-08-31T02:51:33;101002.63;;;24.14;71.44
54556;BME280;57291;37.520;15.106;2023-08-31T02:54:00;101001.44;;;24.15;71.79
54556;BME280;57291;37.520;15.106;2023-08-31T02:56:27;101000.28;;;24.16;71.66
54556;BME280;57291;37.520;15.106;2023-08-31T02:58:54;101005.84;;;24.16;72.02
54556;BME280;57291;37.520;15.106;2023-08-31T03:01:22;100995.09;;;24.14;71.85
54556;BME280;57291;37.520;15.106;2023-08-31T03:03:51;100999.84;;;24.14;72.06
54556;BME280;57291;37.520;15.106;2023-08-31T03:06:20;100998.22;;;24.09;71.99
54556;BME280;57291;37.520;15.106;2023-08-31T03:08:47;101000.63;;;24.10;72.43
54556;BME280;57291;37.520;15.106;2023-08-31T03:11:14;101002.19;;;24.11;72.33
54556;BME280;57291;37.520;15.106;2023-08-31T03:13:41;100996.28;;;24.13;72.18
54556;BME280;57291;37.520;15.106;2023-08-31T03:16:09;100989.19;;;24.16;72.31
54556;BME280;57291;37.520;15.106;2023-08-31T03:18:36;100999.88;;;24.17;72.03
54556;BME280;57291;37.520;15.106;2023-08-31T03:21:03;100993.16;;;24.18;72.28
54556;BME280;57291;37.520;15.106;2023-08-31T03:23:31;100984.03;;;24.18;72.25
54556;BME280;57291;37.520;15.106;2023-08-31T03:25:58;100989.97;;;24.16;72.31
54556;BME280;57291;37.520;15.106;2023-08-31T03:28:25;100987.56;;;24.15;72.16
54556;BME280;57291;37.520;15.106;2023-08-31T03:30:56;100994.31;;;24.14;71.83
54556;BME280;57291;37.520;15.106;2023-08-31T03:33:24;100999.84;;;24.14;72.14
54556;BME280;57291;37.520;15.106;2023-08-31T03:35:51;100999.47;;;24.15;71.98
54556;BME280;57291;37.520;15.106;2023-08-31T03:38:18;101000.28;;;24.16;71.78
54556;BME280;57291;37.520;15.106;2023-08-31T03:40:55;100995.50;;;24.13;72.08
54556;BME280;57291;37.520;15.106;2023-08-31T03:43:23;100996.25;;;24.09;71.84
54556;BME280;57291;37.520;15.106;2023-08-31T03:45:54;100994.22;;;24.06;71.91
54556;BME280;57291;37.520;15.106;2023-08-31T03:48:25;101000.53;;;24.03;72.03
54556;BME280;57291;37.520;15.106;2023-08-31T03:50:53;101008.44;;;24.01;72.13
54556;BME280;57291;37.520;15.106;2023-08-31T03:53:21;101006.44;;;23.98;72.06
54556;BME280;57291;37.520;15.106;2023-08-31T03:55:52;101017.53;;;23.98;72.31
54556;BME280;57291;37.520;15.106;2023-08-31T03:58:20;101013.91;;;23.94;72.15
54556;BME280;57291;37.520;15.106;2023-08-31T04:00:50;101025.03;;;23.94;72.24
54556;BME280;57291;37.520;15.106;2023-08-31T04:03:18;101026.56;;;23.92;72.79
54556;BME280;57291;37.520;15.106;2023-08-31T04:05:46;101021.81;;;23.92;72.68
54556;BME280;57291;37.520;15.106;2023-08-31T04:08:13;101030.56;;;23.94;72.94
54556;BME280;57291;37.520;15.106;2023-08-31T04:10:41;101030.56;;;23.94;72.51
54556;BME280;57291;37.520;15.106;2023-08-31T04:13:08;101039.28;;;23.93;72.78
54556;BME280;57291;37.520;15.106;2023-08-31T04:15:35;101039.66;;;23.91;72.92
54556;BME280;57291;37.520;15.106;2023-08-31T04:18:03;101041.63;;;23.91;73.14
54556;BME280;57291;37.520;15.106;2023-08-31T04:20:30;101046.41;;;23.90;73.33
54556;BME280;57291;37.520;15.106;2023-08-31T04:22:57;101048.75;;;23.88;73.21
54556;BME280;57291;37.520;15.106;2023-08-31T04:25:25;101043.97;;;23.88;73.22
54556;BME280;57291;37.520;15.106;2023-08-31T04:27:55;101047.94;;;23.87;73.28
54556;BME280;57291;37.520;15.106;2023-08-31T04:30:23;101049.94;;;23.87;73.12
54556;BME280;57291;37.520;15.106;2023-08-31T04:32:50;101053.06;;;23.85;73.48
54556;BME280;57291;37.520;15.106;2023-08-31T04:35:17;101053.06;;;23.85;73.49
54556;BME280;57291;37.520;15.106;2023-08-31T04:37:44;101049.94;;;23.87;73.29
54556;BME280;57291;37.520;15.106;2023-08-31T04:40:13;101059.84;;;23.88;73.54
54556;BME280;57291;37.520;15.106;2023-08-31T04:42:40;101063.44;;;23.92;73.40
54556;BME280;57291;37.520;15.106;2023-08-31T04:45:07;101062.34;;;23.97;73.33
54556;BME280;57291;37.520;15.106;2023-08-31T04:47:35;101065.94;;;24.01;73.22
54556;BME280;57291;37.520;15.106;2023-08-31T04:50:02;101065.69;;;24.13;73.46
54556;BME280;57291;37.520;15.106;2023-08-31T04:52:30;101062.66;;;24.25;73.06
54556;BME280;57291;37.520;15.106;2023-08-31T04:54:57;101071.09;;;24.36;72.84
54556;BME280;57291;37.520;15.106;2023-08-31T04:57:24;101070.81;;;24.45;72.36
54556;BME280;57291;37.520;15.106;2023-08-31T04:59:52;101072.88;;;24.51;72.48
54556;BME280;57291;37.520;15.106;2023-08-31T05:02:19;101080.09;;;24.60;72.25
54556;BME280;57291;37.520;15.106;2023-08-31T05:04:47;101085.34;;;24.68;71.46
54556;BME280;57291;37.520;15.106;2023-08-31T05:07:14;101075.06;;;24.72;71.36
54556;BME280;57291;37.520;15.106;2023-08-31T05:09:41;101085.13;;;24.88;71.41
54556;BME280;57291;37.520;15.106;2023-08-31T05:12:08;101088.63;;;25.29;69.99
54556;BME280;57291;37.520;15.106;2023-08-31T05:14:38;101093.59;;;25.57;69.90
54556;BME280;57291;37.520;15.106;2023-08-31T05:17:06;101096.94;;;25.84;68.76
54556;BME280;57291;37.520;15.106;2023-08-31T05:19:35;101094.28;;;26.20;67.76
54556;BME280;57291;37.520;15.106;2023-08-31T05:22:02;101101.16;;;26.62;66.68
54556;BME280;57291;37.520;15.106;2023-08-31T05:24:29;101109.13;;;26.81;65.45
54556;BME280;57291;37.520;15.106;2023-08-31T05:26:56;101113.53;;;26.93;63.89
54556;BME280;57291;37.520;15.106;2023-08-31T05:29:24;101111.13;;;26.84;63.58
54556;BME280;57291;37.520;15.106;2023-08-31T05:31:52;101111.13;;;26.92;63.46
54556;BME280;57291;37.520;15.106;2023-08-31T05:34:22;101113.16;;;27.16;63.42
54556;BME280;57291;37.520;15.106;2023-08-31T05:36:49;101118.16;;;28.03;61.92
54556;BME280;57291;37.520;15.106;2023-08-31T05:39:17;101128.25;;;29.19;59.05
54556;BME280;57291;37.520;15.106;2023-08-31T05:41:44;101121.72;;;29.75;54.44
54556;BME280;57291;37.520;15.106;2023-08-31T05:44:12;101128.16;;;30.02;53.47
54556;BME280;57291;37.520;15.106;2023-08-31T05:46:39;101126.22;;;29.61;54.56
54556;BME280;57291;37.520;15.106;2023-08-31T05:49:07;101122.41;;;28.96;56.27
54556;BME280;57291;37.520;15.106;2023-08-31T05:51:35;101123.41;;;29.24;55.13
54556;BME280;57291;37.520;15.106;2023-08-31T05:54:02;101133.09;;;29.53;55.53
54556;BME280;57291;37.520;15.106;2023-08-31T05:56:30;101127.31;;;29.75;54.23
54556;BME280;57291;37.520;15.106;2023-08-31T05:58:57;101130.47;;;30.96;51.37
54556;BME280;57291;37.520;15.106;2023-08-31T06:01:24;101127.72;;;31.63;50.57
54556;BME280;57291;37.520;15.106;2023-08-31T06:03:52;101134.00;;;31.90;48.78
54556;BME280;57291;37.520;15.106;2023-08-31T06:06:19;101140.34;;;32.51;47.70
54556;BME280;57291;37.520;15.106;2023-08-31T06:08:47;101141.69;;;32.26;48.09
54556;BME280;57291;37.520;15.106;2023-08-31T06:11:15;101141.16;;;32.51;47.10
54556;BME280;57291;37.520;15.106;2023-08-31T06:13:42;101140.97;;;32.22;48.00
54556;BME280;57291;37.520;15.106;2023-08-31T06:16:09;101145.47;;;31.99;48.01
54556;BME280;57291;37.520;15.106;2023-08-31T06:18:37;101153.63;;;31.50;49.27
54556;BME280;57291;37.520;15.106;2023-08-31T06:21:04;101150.03;;;31.50;50.10
54556;BME280;57291;37.520;15.106;2023-08-31T06:23:31;101145.06;;;31.58;49.59
54556;BME280;57291;37.520;15.106;2023-08-31T06:25:58;101148.47;;;31.69;49.28
54556;BME280;57291;37.520;15.106;2023-08-31T06:28:25;101149.94;;;31.53;49.84
54556;BME280;57291;37.520;15.106;2023-08-31T06:30:52;101148.84;;;31.47;49.97
54556;BME280;57291;37.520;15.106;2023-08-31T06:33:20;101148.19;;;31.16;50.16
54556;BME280;57291;37.520;15.106;2023-08-31T06:35:47;101145.25;;;31.00;50.53
54556;BME280;57291;37.520;15.106;2023-08-31T06:38:19;101153.16;;;31.28;50.53
54556;BME280;57291;37.520;15.106;2023-08-31T06:40:47;101155.31;;;31.21;50.22
54556;BME280;57291;37.520;15.106;2023-08-31T06:43:14;101157.50;;;31.10;50.20
54556;BME280;57291;37.520;15.106;2023-08-31T06:45:41;101161.28;;;30.99;48.48
54556;BME280;57291;37.520;15.106;2023-08-31T06:48:09;101161.25;;;31.50;47.84
54556;BME280;57291;37.520;15.106;2023-08-31T06:50:36;101160.59;;;32.06;48.08
54556;BME280;57291;37.520;15.106;2023-08-31T06:53:03;101167.66;;;31.94;47.61
54556;BME280;57291;37.520;15.106;2023-08-31T06:55:31;101168.25;;;31.82;48.07
54556;BME280;57291;37.520;15.106;2023-08-31T06:57:59;101173.81;;;31.85;46.81
54556;BME280;57291;37.520;15.106;2023-08-31T07:00:26;101175.94;;;31.11;48.05
54556;BME280;57291;37.520;15.106;2023-08-31T07:02:53;101186.19;;;30.67;49.67
54556;BME280;57291;37.520;15.106;2023-08-31T07:05:26;101182.84;;;30.18;50.55
54556;BME280;57291;37.520;15.106;2023-08-31T07:07:53;101193.94;;;29.90;51.42
54556;BME280;57291;37.520;15.106;2023-08-31T07:10:21;101188.44;;;30.18;51.66
54556;BME280;57291;37.520;15.106;2023-08-31T07:12:48;101195.25;;;30.51;50.26
54556;BME280;57291;37.520;15.106;2023-08-31T07:15:16;101196.69;;;30.93;47.77
54556;BME280;57291;37.520;15.106;2023-08-31T07:17:43;101199.84;;;31.19;48.22
54556;BME280;57291;37.520;15.106;2023-08-31T07:20:11;101204.19;;;31.50;46.13
54556;BME280;57291;37.520;15.106;2023-08-31T07:22:39;101209.13;;;31.43;45.93
54556;BME280;57291;37.520;15.106;2023-08-31T07:25:07;101213.66;;;31.37;46.97
54556;BME280;57291;37.520;15.106;2023-08-31T07:27:34;101219.78;;;31.28;47.01
54556;BME280;57291;37.520;15.106;2023-08-31T07:30:02;101209.78;;;31.50;46.71
54556;BME280;57291;37.520;15.106;2023-08-31T07:32:31;101212.47;;;31.34;46.23
54556;BME280;57291;37.520;15.106;2023-08-31T07:34:58;101206.19;;;31.50;45.32
54556;BME280;57291;37.520;15.106;2023-08-31T07:37:25;101223.03;;;31.26;46.33
54556;BME280;57291;37.520;15.106;2023-08-31T07:39:52;101222.63;;;31.24;46.58
54556;BME280;57291;37.520;15.106;2023-08-31T07:42:20;101218.16;;;31.03;47.01
54556;BME280;57291;37.520;15.106;2023-08-31T07:44:47;101227.81;;;30.72;47.13
54556;BME280;57291;37.520;15.106;2023-08-31T07:47:14;101224.47;;;30.84;47.16
54556;BME280;57291;37.520;15.106;2023-08-31T07:49:41;101221.66;;;30.84;47.32
54556;BME280;57291;37.520;15.106;2023-08-31T07:52:08;101226.47;;;31.11;47.19
54556;BME280;57291;37.520;15.106;2023-08-31T07:54:35;101225.38;;;31.04;47.16
54556;BME280;57291;37.520;15.106;2023-08-31T07:57:02;101229.59;;;31.16;46.77
54556;BME280;57291;37.520;15.106;2023-08-31T07:59:29;101238.00;;;30.89;47.21
54556;BME280;57291;37.520;15.106;2023-08-31T08:01:58;101239.31;;;30.50;48.74
54556;BME280;57291;37.520;15.106;2023-08-31T08:04:25;101242.97;;;30.09;50.64
54556;BME280;57291;37.520;15.106;2023-08-31T08:06:53;101248.66;;;30.02;50.49
54556;BME280;57291;37.520;15.106;2023-08-31T08:09:21;101252.06;;;29.83;50.99
54556;BME280;57291;37.520;15.106;2023-08-31T08:11:48;101247.44;;;29.65;51.95
54556;BME280;57291;37.520;15.106;2023-08-31T08:14:15;101257.03;;;29.64;52.28
54556;BME280;57291;37.520;15.106;2023-08-31T08:16:42;101251.94;;;29.52;52.46
54556;BME280;57291;37.520;15.106;2023-08-31T08:19:10;101250.56;;;29.23;53.25
54556;BME280;57291;37.520;15.106;2023-08-31T08:21:37;101252.28;;;29.02;53.74
54556;BME280;57291;37.520;15.106;2023-08-31T08:24:04;101248.75;;;28.87;54.18
54556;BME280;57291;37.520;15.106;2023-08-31T08:26:31;101261.50;;;28.92;54.17
54556;BME280;57291;37.520;15.106;2023-08-31T08:28:58;101257.97;;;28.81;54.74
54556;BME280;57291;37.520;15.106;2023-08-31T08:31:26;101257.63;;;28.71;55.19
54556;BME280;57291;37.520;15.106;2023-08-31T08:33:53;101272.38;;;28.75;56.11
54556;BME280;57291;37.520;15.106;2023-08-31T08:36:21;101275.25;;;28.61;55.92
54556;BME280;57291;37.520;15.106;2023-08-31T08:38:48;101279.69;;;28.48;56.09
54556;BME280;57291;37.520;15.106;2023-08-31T08:41:18;101293.28;;;28.46;56.10
54556;BME280;57291;37.520;15.106;2023-08-31T08:43:48;101285.72;;;28.28;57.40
54556;BME280;57291;37.520;15.106;2023-08-31T08:46:16;101297.31;;;28.23;57.16
54556;BME280;57291;37.520;15.106;2023-08-31T08:48:44;101298.47;;;28.29;57.63
54556;BME280;57291;37.520;15.106;2023-08-31T08:51:14;101287.38;;;28.08;58.17
54556;BME280;57291;37.520;15.106;2023-08-31T08:53:42;101285.38;;;28.05;58.81
54556;BME280;57291;37.520;15.106;2023-08-31T08:59:13;101284.59;;;28.04;58.57
54556;BME280;57291;37.520;15.106;2023-08-31T09:01:41;101286.19;;;28.02;58.59
54556;BME280;57291;37.520;15.106;2023-08-31T09:04:09;101279.00;;;28.01;59.60
54556;BME280;57291;37.520;15.106;2023-08-31T09:06:36;101270.59;;;28.15;58.77
54556;BME280;57291;37.520;15.106;2023-08-31T09:09:03;101268.22;;;28.10;59.31
54556;BME280;57291;37.520;15.106;2023-08-31T09:11:31;101270.22;;;28.02;59.72
54556;BME280;57291;37.520;15.106;2023-08-31T09:13:58;101269.44;;;27.98;59.54
54556;BME280;57291;37.520;15.106;2023-08-31T09:16:27;101264.25;;;28.00;59.87
54556;BME280;57291;37.520;15.106;2023-08-31T09:18:56;101266.59;;;28.09;59.92
54556;BME280;57291;37.520;15.106;2023-08-31T09:21:37;101271.78;;;28.03;58.89
54556;BME280;57291;37.520;15.106;2023-08-31T09:24:07;101272.25;;;27.88;60.94
54556;BME280;57291;37.520;15.106;2023-08-31T09:29:19;101275.81;;;27.92;60.36
54556;BME280;57291;37.520;15.106;2023-08-31T09:31:47;101276.22;;;27.79;60.40
54556;BME280;57291;37.520;15.106;2023-08-31T09:34:15;101269.06;;;27.78;60.29
54556;BME280;57291;37.520;15.106;2023-08-31T09:36:42;101275.03;;;27.84;60.88
54556;BME280;57291;37.520;15.106;2023-08-31T09:39:10;101267.41;;;27.74;60.74
54556;BME280;57291;37.520;15.106;2023-08-31T09:41:54;101285.00;;;27.74;61.39
54556;BME280;57291;37.520;15.106;2023-08-31T09:44:22;101275.41;;;27.75;61.37
54556;BME280;57291;37.520;15.106;2023-08-31T09:46:49;101269.03;;;27.57;63.23
54556;BME280;57291;37.520;15.106;2023-08-31T09:49:17;101267.03;;;27.68;62.09
54556;BME280;57291;37.520;15.106;2023-08-31T09:51:48;101267.44;;;27.95;61.98
54556;BME280;57291;37.520;15.106;2023-08-31T09:54:17;101259.06;;;27.95;61.49
54556;BME280;57291;37.520;15.106;2023-08-31T09:56:46;101259.06;;;27.92;61.69
54556;BME280;57291;37.520;15.106;2023-08-31T09:59:15;101265.03;;;28.01;61.06
54556;BME280;57291;37.520;15.106;2023-08-31T10:01:45;101257.88;;;27.82;60.73
54556;BME280;57291;37.520;15.106;2023-08-31T10:04:13;101263.47;;;27.78;59.78
54556;BME280;57291;37.520;15.106;2023-08-31T10:06:42;101267.47;;;27.81;60.91
54556;BME280;57291;37.520;15.106;2023-08-31T10:09:10;101266.22;;;28.00;60.36
54556;BME280;57291;37.520;15.106;2023-08-31T10:11:40;101263.78;;;28.27;59.81
54556;BME280;57291;37.520;15.106;2023-08-31T10:14:10;101263.38;;;28.21;59.61
54556;BME280;57291;37.520;15.106;2023-08-31T10:16:41;101253.44;;;28.02;59.96
54556;BME280;57291;37.520;15.106;2023-08-31T10:19:10;101261.81;;;28.02;60.16
54556;BME280;57291;37.520;15.106;2023-08-31T10:21:40;101253.81;;;28.19;59.76
54556;BME280;57291;37.520;15.106;2023-08-31T10:24:07;101253.81;;;28.15;59.22
54556;BME280;57291;37.520;15.106;2023-08-31T10:26:35;101257.03;;;28.03;59.60
54556;BME280;57291;37.520;15.106;2023-08-31T10:29:02;101254.25;;;28.03;59.55
54556;BME280;57291;37.520;15.106;2023-08-31T10:31:33;101259.41;;;28.12;59.12
54556;BME280;57291;37.520;15.106;2023-08-31T10:34:02;101262.63;;;28.14;58.67
54556;BME280;57291;37.520;15.106;2023-08-31T10:36:38;101256.63;;;28.08;58.81
54556;BME280;57291;37.520;15.106;2023-08-31T10:39:13;101249.09;;;27.69;60.50
54556;BME280;57291;37.520;15.106;2023-08-31T10:41:55;101254.28;;;27.49;60.88
54556;BME280;57291;37.520;15.106;2023-08-31T10:44:24;101241.91;;;27.65;60.17
54556;BME280;57291;37.520;15.106;2023-08-31T10:46:52;101243.09;;;27.67;60.85
54556;BME280;57291;37.520;15.106;2023-08-31T10:49:22;101241.91;;;27.61;60.72
54556;BME280;57291;37.520;15.106;2023-08-31T10:51:57;101241.91;;;27.75;59.77
54556;BME280;57291;37.520;15.106;2023-08-31T10:54:25;101236.69;;;27.70;59.34
54556;BME280;57291;37.520;15.106;2023-08-31T10:59:52;101241.13;;;27.71;61.51
54556;BME280;57291;37.520;15.106;2023-08-31T11:02:46;101257.88;;;27.82;60.74
54556;BME280;57291;37.520;15.106;2023-08-31T11:05:15;101253.06;;;27.90;60.18
54556;BME280;57291;37.520;15.106;2023-08-31T11:07:47;101267.03;;;27.90;59.45
54556;BME280;57291;37.520;15.106;2023-08-31T11:10:23;101265.84;;;27.98;60.34
54556;BME280;57291;37.520;15.106;2023-08-31T11:12:54;101257.88;;;27.86;60.32
54556;BME280;57291;37.520;15.106;2023-08-31T11:15:24;101259.44;;;27.72;61.42
54556;BME280;57291;37.520;15.106;2023-08-31T11:17:54;101269.81;;;27.75;58.91
54556;BME280;57291;37.520;15.106;2023-08-31T11:20:24;101275.00;;;27.63;60.81
54556;BME280;57291;37.520;15.106;2023-08-31T11:22:56;101268.25;;;27.85;60.97
54556;BME280;57291;37.520;15.106;2023-08-31T11:25:23;101266.63;;;27.98;59.75
54556;BME280;57291;37.520;15.106;2023-08-31T11:27:55;101270.25;;;27.88;59.93
54556;BME280;57291;37.520;15.106;2023-08-31T11:30:25;101269.81;;;27.90;59.97
54556;BME280;57291;37.520;15.106;2023-08-31T11:32:53;101269.84;;;28.00;59.42
54556;BME280;57291;37.520;15.106;2023-08-31T11:35:22;101264.63;;;27.99;59.34
54556;BME280;57291;37.520;15.106;2023-08-31T11:37:51;101257.84;;;28.00;59.60
54556;BME280;57291;37.520;15.106;2023-08-31T11:40:18;101260.66;;;27.86;61.08
54556;BME280;57291;37.520;15.106;2023-08-31T11:42:48;101253.50;;;27.85;59.96
54556;BME280;57291;37.520;15.106;2023-08-31T11:45:16;101250.72;;;27.77;60.15
54556;BME280;57291;37.520;15.106;2023-08-31T11:47:44;101251.09;;;27.65;60.45
54556;BME280;57291;37.520;15.106;2023-08-31T11:50:13;101254.66;;;27.66;60.34
54556;BME280;57291;37.520;15.106;2023-08-31T11:52:41;101262.69;;;27.78;59.86
54556;BME280;57291;37.520;15.106;2023-08-31T11:55:13;101261.81;;;27.74;60.77
54556;BME280;57291;37.520;15.106;2023-08-31T11:57:48;101265.06;;;27.83;59.20
54556;BME280;57291;37.520;15.106;2023-08-31T12:00:18;101259.03;;;27.74;61.22
54556;BME280;57291;37.520;15.106;2023-08-31T12:03:00;101261.06;;;27.80;60.55
54556;BME280;57291;37.520;15.106;2023-08-31T12:05:28;101257.84;;;27.60;61.86
54556;BME280;57291;37.520;15.106;2023-08-31T12:07:56;101260.28;;;27.48;61.32
54556;BME280;57291;37.520;15.106;2023-08-31T12:10:26;101273.81;;;27.46;63.07
54556;BME280;57291;37.520;15.106;2023-08-31T12:12:54;101276.19;;;27.44;61.71
54556;BME280;57291;37.520;15.106;2023-08-31T12:15:34;101271.03;;;27.46;61.61
54556;BME280;57291;37.520;15.106;2023-08-31T12:18:12;101271.41;;;27.41;62.60
54556;BME280;57291;37.520;15.106;2023-08-31T12:20:50;101272.22;;;27.41;62.19
54556;BME280;57291;37.520;15.106;2023-08-31T12:23:19;101276.19;;;27.47;62.33
54556;BME280;57291;37.520;15.106;2023-08-31T12:25:52;101270.22;;;27.45;61.70
54556;BME280;57291;37.520;15.106;2023-08-31T12:28:22;101270.63;;;27.58;61.78
54556;BME280;57291;37.520;15.106;2023-08-31T12:30:51;101271.44;;;27.51;61.04
54556;BME280;57291;37.520;15.106;2023-08-31T12:33:20;101277.00;;;27.55;61.80
54556;BME280;57291;37.520;15.106;2023-08-31T12:35:48;101265.84;;;27.55;62.08
54556;BME280;57291;37.520;15.106;2023-08-31T12:38:16;101278.59;;;27.49;61.67
54556;BME280;57291;37.520;15.106;2023-08-31T12:40:43;101277.41;;;27.46;62.37
54556;BME280;57291;37.520;15.106;2023-08-31T12:43:10;101267.81;;;27.44;61.56
54556;BME280;57291;37.520;15.106;2023-08-31T12:45:37;101271.44;;;27.48;63.26
54556;BME280;57291;37.520;15.106;2023-08-31T12:48:05;101268.22;;;27.28;63.24
54556;BME280;57291;37.520;15.106;2023-08-31T12:50:32;101265.81;;;27.33;62.86
54556;BME280;57291;37.520;15.106;2023-08-31T12:52:59;101273.03;;;27.45;62.83
54556;BME280;57291;37.520;15.106;2023-08-31T12:55:26;101280.19;;;27.50;63.36
54556;BME280;57291;37.520;15.106;2023-08-31T12:57:54;101283.41;;;27.48;63.42
54556;BME280;57291;37.520;15.106;2023-08-31T13:00:21;101281.78;;;27.51;63.42
54556;BME280;57291;37.520;15.106;2023-08-31T13:02:50;101291.34;;;27.57;63.12
54556;BME280;57291;37.520;15.106;2023-08-31T13:05:18;101294.56;;;27.66;62.61
54556;BME280;57291;37.520;15.106;2023-08-31T13:07:45;101284.59;;;27.69;61.93